createdAt,value
2023-01-12T00:00:46.693Z,5.15
2023-01-12T00:03:17.732Z,5.50
2023-01-12T00:05:48.499Z,4.30
2023-01-12T00:08:32.318Z,3.55
2023-01-12T00:11:04.387Z,4.90
2023-01-12T00:13:36.129Z,6.88
2023-01-12T00:16:27.007Z,3.63
2023-01-12T00:18:57.856Z,5.25
2023-01-12T00:21:30.326Z,6.43
2023-01-12T00:24:00.967Z,5.90
2023-01-12T00:26:32.509Z,3.60
2023-01-12T00:29:03.202Z,6.28
2023-01-12T00:31:34.140Z,5.57
2023-01-12T00:34:05.745Z,4.93
2023-01-12T00:36:38.076Z,6.18
2023-01-12T00:39:09.203Z,5.43
2023-01-12T00:42:01.791Z,5.82
2023-01-12T00:44:51.236Z,4.55
2023-01-12T00:47:22.470Z,5.43
2023-01-12T00:49:55.855Z,4.15
2023-01-12T00:52:31.141Z,4.40
2023-01-12T00:55:03.116Z,3.88
2023-01-12T00:57:34.020Z,3.22
2023-01-12T01:00:05.642Z,4.00
2023-01-12T01:02:36.421Z,4.35
2023-01-12T01:05:08.679Z,6.47
2023-01-12T01:07:39.775Z,4.97
2023-01-12T01:10:10.924Z,4.72
2023-01-12T01:12:41.580Z,4.65
2023-01-12T01:15:13.184Z,5.28
2023-01-12T01:17:43.997Z,6.10
2023-01-12T01:20:15.244Z,4.10
2023-01-12T01:22:45.964Z,4.63
2023-01-12T01:25:16.965Z,3.47
2023-01-12T01:27:48.385Z,6.22
2023-01-12T01:30:20.165Z,4.22
2023-01-12T01:32:51.016Z,4.10
2023-01-12T01:35:22.823Z,3.20
2023-01-12T01:37:54.818Z,3.25
2023-01-12T01:40:26.613Z,3.42
2023-01-12T01:42:58.531Z,3.47
2023-01-12T01:45:29.502Z,4.70
2023-01-12T01:48:04.189Z,5.82
2023-01-12T01:50:43.666Z,3.83
2023-01-12T01:53:21.354Z,3.78
2023-01-12T01:56:07.378Z,3.00
2023-01-12T01:58:52.251Z,4.20
2023-01-12T02:01:23.352Z,4.30
2023-01-12T02:03:56.430Z,3.38
2023-01-12T02:06:28.908Z,2.42
2023-01-12T02:09:20.292Z,5.10
2023-01-12T02:12:09.444Z,5.75
2023-01-12T02:14:59.419Z,2.97
2023-01-12T02:18:15.543Z,2.85
2023-01-12T02:21:31.192Z,1.58
2023-01-12T02:24:33.075Z,4.03
2023-01-12T02:27:42.522Z,5.05
2023-01-12T02:30:26.545Z,3.08
2023-01-12T02:33:21.720Z,4.22
2023-01-12T02:36:10.163Z,3.50
2023-01-12T02:39:07.394Z,3.90
2023-01-12T02:42:14.070Z,4.28
2023-01-12T02:45:25.535Z,1.80
2023-01-12T02:48:28.927Z,4.32
2023-01-12T02:51:25.445Z,2.35
2023-01-12T02:56:45.771Z,2.72
2023-01-12T02:59:32.799Z,3.08
2023-01-12T03:02:18.366Z,3.83
2023-01-12T03:04:49.147Z,2.55
2023-01-12T03:07:26.991Z,2.33
2023-01-12T03:10:15.235Z,3.00
2023-01-12T03:12:49.871Z,3.22
2023-01-12T03:15:22.267Z,2.67
2023-01-12T03:18:02.638Z,2.15
2023-01-12T03:20:38.284Z,3.55
2023-01-12T03:23:27.276Z,4.28
2023-01-12T03:26:00.220Z,2.78
2023-01-12T03:28:36.718Z,1.85
2023-01-12T03:31:13.056Z,6.28
2023-01-12T03:33:45.688Z,2.80
2023-01-12T03:36:27.680Z,5.63
2023-01-12T03:39:10.660Z,2.53
2023-01-12T03:41:52.916Z,2.33
2023-01-12T03:44:54.815Z,2.13
2023-01-12T03:47:29.753Z,2.20
2023-01-12T03:50:37.431Z,3.90
2023-01-12T03:53:10.312Z,2.65
2023-01-12T03:55:42.243Z,3.08
2023-01-12T03:58:13.893Z,2.65
2023-01-12T04:00:44.958Z,3.08
2023-01-12T04:03:18.300Z,2.10
2023-01-12T04:05:50.425Z,3.47
2023-01-12T04:08:29.350Z,2.00
2023-01-12T04:11:00.553Z,1.88
2023-01-12T04:13:31.582Z,3.20
2023-01-12T04:16:02.552Z,2.50
2023-01-12T04:18:35.117Z,2.65
2023-01-12T04:21:07.949Z,1.33
2023-01-12T04:23:39.994Z,3.13
2023-01-12T04:26:10.887Z,1.70
2023-01-12T04:28:43.119Z,2.28
2023-01-12T04:31:15.810Z,2.70
2023-01-12T04:33:49.055Z,1.70
2023-01-12T04:36:19.946Z,2.38
2023-01-12T04:38:51.602Z,3.30
2023-01-12T04:41:23.592Z,2.20
2023-01-12T04:43:54.254Z,2.50
2023-01-12T04:46:25.169Z,4.00
2023-01-12T04:48:56.215Z,3.92
2023-01-12T04:51:27.223Z,2.20
2023-01-12T04:53:58.210Z,1.60
2023-01-12T04:56:30.747Z,2.67
2023-01-12T04:59:03.395Z,4.25
2023-01-12T05:01:35.400Z,3.03
2023-01-12T05:04:07.811Z,2.17
2023-01-12T05:06:38.964Z,3.35
2023-01-12T05:09:30.452Z,4.68
2023-01-12T05:12:03.985Z,3.17
2023-01-12T05:14:35.031Z,3.35
2023-01-12T05:17:07.900Z,3.70
2023-01-12T05:19:39.650Z,3.65
2023-01-12T05:22:12.116Z,3.17
2023-01-12T05:24:42.426Z,1.90
2023-01-12T05:27:13.672Z,6.38
2023-01-12T05:29:44.618Z,6.82
2023-01-12T05:32:15.651Z,3.00
2023-01-12T05:34:48.182Z,2.20
2023-01-12T05:37:19.135Z,2.55
2023-01-12T05:39:49.782Z,1.88
2023-01-12T05:42:38.130Z,2.47
2023-01-12T05:45:10.130Z,4.57
2023-01-12T05:47:40.809Z,3.00
2023-01-12T05:50:13.339Z,2.85
2023-01-12T05:52:45.159Z,2.50
2023-01-12T05:55:15.675Z,2.88
2023-01-12T05:57:46.337Z,4.18
2023-01-12T06:00:17.083Z,3.38
2023-01-12T06:02:48.053Z,3.83
2023-01-12T06:05:19.976Z,3.05
2023-01-12T06:07:50.785Z,3.35
2023-01-12T06:10:21.499Z,2.85
2023-01-12T06:13:12.446Z,4.57
2023-01-12T06:15:43.128Z,5.57
2023-01-12T06:18:15.407Z,2.15
2023-01-12T06:20:47.048Z,2.83
2023-01-12T06:23:18.086Z,3.67
2023-01-12T06:25:49.760Z,3.25
2023-01-12T06:28:20.443Z,3.08
2023-01-12T06:31:05.259Z,2.75
2023-01-12T06:33:37.619Z,3.20
2023-01-12T06:36:10.836Z,2.58
2023-01-12T06:38:42.235Z,1.92
2023-01-12T06:41:34.678Z,2.45
2023-01-12T06:44:05.376Z,3.38
2023-01-12T06:46:36.098Z,3.40
2023-01-12T06:49:06.792Z,2.83
2023-01-12T06:51:37.962Z,2.28
2023-01-12T06:54:08.961Z,4.68
2023-01-12T06:56:39.622Z,3.75
2023-01-12T06:59:10.785Z,2.65
2023-01-12T07:01:42.115Z,3.90
2023-01-12T07:04:13.195Z,3.35
2023-01-12T07:06:43.869Z,2.60
2023-01-12T07:09:14.719Z,2.25
2023-01-12T07:11:45.882Z,1.98
2023-01-12T07:14:16.836Z,2.13
2023-01-12T07:16:47.639Z,1.98
2023-01-12T07:19:18.777Z,2.90
2023-01-12T07:21:51.900Z,2.13
2023-01-12T07:24:24.343Z,1.98
2023-01-12T07:27:00.369Z,2.78
2023-01-12T07:29:33.553Z,2.75
2023-01-12T07:32:04.777Z,3.28
2023-01-12T07:34:35.890Z,2.55
2023-01-12T07:37:07.342Z,2.90
2023-01-12T07:39:38.007Z,2.47
2023-01-12T07:42:27.241Z,2.50
2023-01-12T07:45:00.293Z,7.78
2023-01-12T07:47:32.765Z,8.18
2023-01-12T07:50:06.688Z,13.63
2023-01-12T07:52:37.938Z,12.85
2023-01-12T07:55:10.563Z,12.98
2023-01-12T07:57:41.202Z,19.77
2023-01-12T08:00:13.060Z,15.40
2023-01-12T08:02:44.645Z,16.77
2023-01-12T08:05:15.496Z,15.18
2023-01-12T08:07:46.419Z,16.58
2023-01-12T08:10:18.380Z,17.05
2023-01-12T08:12:49.444Z,15.20
2023-01-12T08:15:20.815Z,16.70
2023-01-12T08:18:03.358Z,14.70
2023-01-12T08:20:39.792Z,14.20
2023-01-12T08:23:49.750Z,16.77
2023-01-12T08:26:34.139Z,20.25
2023-01-12T08:29:43.222Z,15.15
2023-01-12T08:32:16.155Z,16.98
2023-01-12T08:34:49.709Z,16.15
2023-01-12T08:37:25.919Z,15.05
2023-01-12T08:42:31.886Z,13.45
2023-01-12T08:45:02.782Z,15.00
2023-01-12T08:47:33.941Z,13.63
2023-01-12T08:50:05.131Z,13.80
2023-01-12T08:52:37.287Z,12.07
2023-01-12T08:55:08.479Z,15.15
2023-01-12T08:57:41.644Z,14.30
2023-01-12T09:00:13.412Z,14.50
2023-01-12T09:02:44.315Z,10.98
2023-01-12T09:05:17.168Z,10.85
2023-01-12T09:07:49.172Z,11.18
2023-01-12T09:10:21.300Z,13.60
2023-01-12T09:12:52.033Z,13.18
2023-01-12T09:15:22.878Z,11.95
2023-01-12T09:17:58.013Z,14.25
2023-01-12T09:20:29.073Z,9.07
2023-01-12T09:22:59.785Z,10.95
2023-01-12T09:25:30.547Z,9.90
2023-01-12T09:28:01.581Z,12.63
2023-01-12T09:30:37.652Z,10.02
2023-01-12T09:33:10.384Z,11.93
2023-01-12T09:35:42.533Z,9.52
2023-01-12T09:38:14.304Z,11.48
2023-01-12T09:40:48.118Z,10.45
2023-01-12T09:43:37.218Z,9.30
2023-01-12T09:46:27.707Z,9.48
2023-01-12T09:48:58.520Z,9.48
2023-01-12T09:51:37.842Z,10.48
2023-01-12T09:54:09.750Z,9.32
2023-01-12T09:57:33.464Z,10.13
2023-01-12T10:00:16.623Z,9.57
2023-01-12T10:02:57.410Z,11.30
2023-01-12T10:06:08.625Z,11.77
2023-01-12T10:08:56.716Z,10.95
2023-01-12T10:11:36.452Z,10.95
2023-01-12T10:14:35.866Z,13.75
2023-01-12T10:17:50.052Z,13.23
2023-01-12T10:20:37.442Z,14.30
2023-01-12T10:23:16.100Z,9.15
2023-01-12T10:25:52.681Z,10.52
2023-01-12T10:28:40.671Z,11.20
2023-01-12T10:31:38.095Z,9.55
2023-01-12T10:34:11.283Z,12.18
2023-01-12T10:37:10.559Z,10.68
2023-01-12T10:39:42.111Z,11.30
2023-01-12T10:42:34.756Z,8.98
2023-01-12T10:45:26.360Z,8.20
2023-01-12T10:47:58.564Z,16.45
2023-01-12T10:50:32.228Z,9.70
2023-01-12T10:53:16.263Z,7.75
2023-01-12T10:55:49.137Z,12.40
2023-01-12T10:58:24.576Z,9.35
2023-01-12T11:00:55.862Z,8.32
2023-01-12T11:03:43.057Z,9.85
2023-01-12T11:06:29.488Z,9.90
2023-01-12T11:09:00.546Z,11.85
2023-01-12T11:11:35.842Z,8.80
2023-01-12T11:14:08.208Z,8.95
2023-01-12T11:16:44.618Z,8.65
2023-01-12T11:22:36.857Z,7.18
2023-01-12T11:25:25.614Z,9.98
2023-01-12T11:28:01.793Z,12.55
2023-01-12T11:30:39.967Z,12.65
2023-01-12T11:33:48.395Z,8.80
2023-01-12T11:36:30.326Z,8.77
2023-01-12T11:39:06.482Z,10.18
2023-01-12T11:42:11.283Z,10.65
2023-01-12T11:45:16.270Z,10.10
2023-01-12T11:47:58.359Z,8.45
2023-01-12T11:50:41.193Z,7.70
2023-01-12T11:53:23.247Z,9.02
2023-01-12T11:56:20.922Z,9.30
2023-01-12T11:59:08.899Z,7.32
2023-01-12T12:02:09.185Z,9.23
2023-01-12T12:04:54.887Z,10.50
2023-01-12T12:07:28.134Z,8.52
2023-01-12T12:10:17.670Z,10.35
2023-01-12T12:12:54.142Z,9.52
2023-01-12T12:18:09.585Z,7.38
2023-01-12T12:21:12.333Z,8.65
2023-01-12T12:24:04.825Z,10.90
2023-01-12T12:26:55.108Z,8.55
2023-01-12T12:30:11.569Z,10.02
2023-01-12T12:32:46.805Z,8.82
2023-01-12T12:35:51.643Z,7.78
2023-01-12T12:38:48.898Z,7.68
2023-01-12T12:42:02.229Z,6.35
2023-01-12T12:45:14.480Z,9.73
2023-01-12T12:48:13.973Z,6.15
2023-01-12T12:51:05.461Z,8.02
2023-01-12T12:53:47.109Z,9.35
2023-01-12T12:56:20.407Z,5.50
2023-01-12T12:58:55.595Z,7.28
2023-01-12T13:01:25.939Z,9.35
2023-01-12T13:03:58.222Z,9.98
2023-01-12T13:06:49.864Z,8.60
2023-01-12T13:09:20.156Z,7.30
2023-01-12T13:11:58.431Z,9.40
2023-01-12T13:14:37.337Z,6.55
2023-01-12T13:17:27.283Z,7.15
2023-01-12T13:20:24.036Z,10.00
2023-01-12T13:22:55.659Z,7.85
2023-01-12T13:25:46.031Z,10.07
2023-01-12T13:28:22.365Z,7.60
2023-01-12T13:30:55.281Z,11.05
2023-01-12T13:33:29.914Z,8.63
2023-01-12T13:36:07.136Z,7.22
2023-01-12T13:38:47.522Z,7.53
2023-01-12T13:41:40.300Z,9.00
2023-01-12T13:44:17.364Z,7.63
2023-01-12T13:46:54.450Z,10.18
2023-01-12T13:49:33.601Z,6.60
2023-01-12T13:52:11.480Z,8.65
2023-01-12T13:54:51.729Z,6.28
2023-01-12T13:57:31.085Z,8.38
2023-01-12T14:00:13.158Z,8.27
2023-01-12T14:02:44.433Z,8.25
2023-01-12T14:05:35.677Z,8.60
2023-01-12T14:08:14.542Z,10.32
2023-01-12T14:11:06.245Z,6.40
2023-01-12T14:13:52.048Z,6.22
2023-01-12T14:16:40.160Z,7.13
2023-01-12T14:19:43.402Z,5.88
2023-01-12T14:22:22.445Z,6.25
2023-01-12T14:24:52.756Z,6.28
2023-01-12T14:27:28.342Z,7.15
2023-01-12T14:29:58.776Z,7.30
2023-01-12T14:32:29.145Z,6.75
2023-01-12T14:34:59.633Z,6.72
2023-01-12T14:37:34.324Z,5.85
2023-01-12T14:40:05.236Z,6.28
2023-01-12T14:42:53.406Z,6.82
2023-01-12T14:45:47.566Z,5.28
2023-01-12T14:48:30.582Z,5.47
2023-01-12T14:51:29.239Z,6.15
2023-01-12T14:54:03.330Z,4.70
2023-01-12T14:56:46.556Z,7.95
2023-01-12T14:59:26.791Z,6.90
2023-01-12T15:02:17.301Z,6.65
2023-01-12T15:05:13.497Z,5.53
2023-01-12T15:07:55.805Z,6.33
2023-01-12T15:10:31.155Z,6.43
2023-01-12T15:13:15.617Z,5.20
2023-01-12T15:16:04.386Z,5.07
2023-01-12T15:18:53.983Z,6.32
2023-01-12T15:21:45.137Z,4.80
2023-01-12T15:24:53.581Z,5.88
2023-01-12T15:27:26.755Z,6.28
2023-01-12T15:29:58.177Z,5.32
2023-01-12T15:32:48.827Z,8.77
2023-01-12T15:35:28.081Z,6.50
2023-01-12T15:38:00.460Z,6.13
2023-01-12T15:40:32.209Z,8.30
2023-01-12T15:43:06.403Z,6.57
2023-01-12T15:45:41.470Z,5.93
2023-01-12T15:48:12.144Z,7.15
2023-01-12T15:50:45.091Z,9.23
2023-01-12T15:53:21.981Z,7.10
2023-01-12T15:55:52.547Z,6.57
2023-01-12T15:58:22.905Z,5.60
2023-01-12T16:00:54.270Z,7.07
2023-01-12T16:03:57.322Z,8.57
2023-01-12T16:06:15.804Z,5.43
2023-01-12T16:08:46.157Z,5.60
2023-01-12T16:11:22.706Z,6.75
2023-01-12T16:16:27.322Z,5.78
2023-01-12T16:19:03.113Z,7.57
2023-01-12T16:21:34.336Z,6.63
2023-01-12T16:24:05.407Z,4.60
2023-01-12T16:26:35.966Z,5.25
2023-01-12T16:29:06.622Z,4.53
2023-01-12T16:31:39.354Z,5.82
2023-01-12T16:34:10.205Z,6.88
2023-01-12T16:36:40.615Z,4.93
2023-01-12T16:39:13.968Z,6.68
2023-01-12T16:41:44.452Z,6.47
2023-01-12T16:44:14.901Z,4.70
2023-01-12T16:46:45.391Z,5.00
2023-01-12T16:49:15.716Z,6.25
2023-01-12T16:51:46.226Z,5.82
2023-01-12T16:54:16.667Z,5.88
2023-01-12T16:56:46.925Z,5.57
2023-01-12T16:59:17.511Z,5.47
2023-01-12T17:01:48.133Z,6.40
2023-01-12T17:04:18.431Z,5.55
2023-01-12T17:06:49.729Z,5.95
2023-01-12T17:09:20.328Z,5.68
2023-01-12T17:11:52.728Z,6.18
2023-01-12T17:14:26.818Z,7.30
2023-01-12T17:17:03.571Z,6.57
2023-01-12T17:19:36.029Z,6.20
2023-01-12T17:22:08.583Z,5.38
2023-01-12T17:24:43.623Z,6.38
2023-01-12T17:27:14.300Z,5.40
2023-01-12T17:29:44.911Z,5.28
2023-01-12T17:32:15.869Z,6.07
2023-01-12T17:34:49.579Z,6.60
2023-01-12T17:37:19.981Z,6.22
2023-01-12T17:39:51.936Z,6.05
2023-01-12T17:42:40.437Z,6.20
2023-01-12T17:45:11.581Z,6.13
2023-01-12T17:47:42.282Z,6.72
2023-01-12T17:50:13.188Z,6.68
2023-01-12T17:52:43.461Z,7.43
2023-01-12T17:55:14.215Z,6.75
2023-01-12T17:57:47.113Z,8.20
2023-01-12T18:00:19.962Z,6.85
2023-01-12T18:02:50.776Z,6.10
2023-01-12T18:05:21.252Z,7.47
2023-01-12T18:07:51.977Z,7.80
2023-01-12T18:10:22.573Z,7.22
2023-01-12T18:12:52.813Z,6.75
2023-01-12T18:15:23.144Z,5.63
2023-01-12T18:17:53.737Z,7.60
2023-01-12T18:20:24.073Z,6.88
2023-01-12T18:22:56.863Z,6.47
2023-01-12T18:25:27.125Z,6.63
2023-01-12T18:27:59.481Z,7.00
2023-01-12T18:30:30.874Z,6.32
2023-01-12T18:33:01.133Z,7.18
2023-01-12T18:35:31.429Z,7.47
2023-01-12T18:38:01.903Z,6.57
2023-01-12T18:40:32.296Z,6.28
2023-01-12T18:43:02.746Z,5.93
2023-01-12T18:45:33.381Z,6.80
2023-01-12T18:48:23.029Z,7.93
2023-01-12T18:51:14.480Z,6.93
2023-01-12T18:53:45.820Z,6.93
2023-01-12T18:56:16.576Z,8.75
2023-01-12T18:58:47.238Z,8.73
2023-01-12T19:01:24.252Z,7.63
2023-01-12T19:03:55.679Z,9.23
2023-01-12T19:06:41.219Z,9.52
2023-01-12T19:09:30.266Z,8.57
2023-01-12T19:12:00.741Z,7.72
2023-01-12T19:14:49.681Z,10.90
2023-01-12T19:17:28.865Z,7.47
2023-01-12T19:20:04.302Z,8.75
2023-01-12T19:22:52.908Z,11.18
2023-01-12T19:25:43.650Z,10.20
2023-01-12T19:28:37.354Z,9.35
2023-01-12T19:31:14.208Z,7.93
2023-01-12T19:33:45.404Z,9.00
2023-01-12T19:36:18.154Z,9.02
2023-01-12T19:38:51.440Z,10.02
2023-01-12T19:41:40.258Z,9.13
2023-01-12T19:44:10.516Z,8.15
2023-01-12T19:46:41.645Z,9.05
2023-01-12T19:49:13.053Z,11.77
2023-01-12T19:51:43.785Z,11.23
2023-01-12T19:54:14.675Z,7.95
2023-01-12T19:56:48.721Z,9.43
2023-01-12T19:59:19.600Z,11.60
2023-01-12T20:01:52.502Z,10.35
2023-01-12T20:04:23.695Z,11.27
2023-01-12T20:06:54.902Z,10.23
2023-01-12T20:09:25.608Z,10.32
2023-01-12T20:11:56.939Z,12.18
2023-01-12T20:14:27.344Z,9.52
2023-01-12T20:17:00.380Z,13.15
2023-01-12T20:19:30.685Z,13.07
2023-01-12T20:22:02.070Z,12.43
2023-01-12T20:24:33.358Z,9.45
2023-01-12T20:27:04.285Z,10.68
2023-01-12T20:29:34.690Z,9.43
2023-01-12T20:32:06.638Z,12.88
2023-01-12T20:34:37.206Z,9.57
2023-01-12T20:37:10.421Z,9.63
2023-01-12T20:39:40.857Z,8.23
2023-01-12T20:42:11.271Z,10.85
2023-01-12T20:44:42.112Z,10.88
2023-01-12T20:47:12.423Z,9.07
2023-01-12T20:49:42.735Z,9.48
2023-01-12T20:52:13.102Z,9.18
2023-01-12T20:54:43.700Z,10.50
2023-01-12T20:57:16.219Z,10.55
2023-01-12T20:59:46.888Z,10.48
2023-01-12T21:02:23.664Z,8.35
2023-01-12T21:04:54.751Z,9.82
2023-01-12T21:07:25.682Z,11.13
2023-01-12T21:09:55.938Z,8.23
2023-01-12T21:12:27.649Z,15.65
2023-01-12T21:14:58.264Z,8.95
2023-01-12T21:17:28.553Z,7.95
2023-01-12T21:19:58.855Z,8.43
2023-01-12T21:22:29.370Z,7.88
2023-01-12T21:24:59.691Z,10.00
2023-01-12T21:27:30.374Z,7.50
2023-01-12T21:30:00.626Z,7.88
2023-01-12T21:32:31.610Z,11.00
2023-01-12T21:35:02.027Z,8.80
2023-01-12T21:37:32.994Z,8.15
2023-01-12T21:40:06.304Z,8.95
2023-01-12T21:42:54.379Z,9.80
2023-01-12T21:45:25.928Z,8.13
2023-01-12T21:47:59.501Z,8.27
2023-01-12T21:50:30.176Z,8.52
2023-01-12T21:53:00.614Z,5.20
2023-01-12T21:55:31.396Z,6.07
2023-01-12T21:58:04.203Z,7.82
2023-01-12T22:00:35.050Z,5.03
2023-01-12T22:03:05.339Z,9.45
2023-01-12T22:05:37.469Z,6.80
2023-01-12T22:08:08.503Z,6.93
2023-01-12T22:10:39.236Z,6.57
2023-01-12T22:13:12.331Z,7.13
2023-01-12T22:15:42.679Z,6.43
2023-01-12T22:18:13.299Z,6.57
2023-01-12T22:20:43.913Z,6.63
2023-01-12T22:23:15.505Z,4.28
2023-01-12T22:25:46.642Z,6.60
2023-01-12T22:28:17.825Z,7.75
2023-01-12T22:30:48.078Z,6.78
2023-01-12T22:33:18.307Z,6.82
2023-01-12T22:35:51.092Z,4.68
2023-01-12T22:38:29.657Z,6.55
2023-01-12T22:41:05.376Z,5.50
2023-01-12T22:43:42.051Z,7.30
2023-01-12T22:46:18.164Z,5.32
2023-01-12T22:51:29.137Z,4.10
2023-01-12T22:53:59.900Z,5.53
2023-01-12T22:56:30.400Z,5.10
2023-01-12T22:59:00.719Z,6.05
2023-01-12T23:01:31.232Z,5.10
2023-01-12T23:04:01.938Z,5.30
2023-01-12T23:06:33.589Z,4.35
2023-01-12T23:09:03.880Z,61.97
2023-01-12T23:11:34.351Z,20.35
2023-01-12T23:14:04.698Z,6.13
2023-01-12T23:16:35.767Z,5.03
2023-01-12T23:19:07.455Z,6.78
2023-01-12T23:21:38.110Z,6.63
2023-01-12T23:24:08.501Z,4.47
2023-01-12T23:26:38.751Z,5.28
2023-01-12T23:29:10.027Z,5.05
2023-01-12T23:31:40.307Z,5.95
2023-01-12T23:34:10.571Z,5.10
2023-01-12T23:36:41.026Z,6.00
2023-01-12T23:39:14.029Z,3.88
2023-01-12T23:41:45.750Z,4.45
2023-01-12T23:44:16.053Z,4.65
2023-01-12T23:46:46.490Z,5.05
2023-01-12T23:49:16.807Z,4.72
2023-01-12T23:51:47.103Z,9.27
2023-01-12T23:54:20.777Z,4.28
2023-01-12T23:56:55.000Z,3.67
2023-01-12T23:59:25.940Z,5.00
